Time;durP1;ratioP1;P1;durP2;ratioP2;P2;SDS_P1;SDS_P2;PMS_P1;PMS_P2;Temp;Humidity;BMP_temperature;BMP_pressure;BME280_temperature;BME280_humidity;BME280_pressure;Samples;Min_cycle;Max_cycle;Signal;HPM_P1;HPM_P2
2023/10/24 00:00:17;;;;;;;19.33;16.00;;;12.90;99.90;;;13.21;100.00;100047.50;4807548;29;20051;-63
2023/10/24 00:02:47;;;;;;;17.42;15.13;;;12.90;99.90;;;13.10;100.00;100046.94;4807409;29;20450;-64
2023/10/24 00:05:16;;;;;;;17.90;16.03;;;12.80;99.90;;;13.07;100.00;100037.28;4808018;29;20062;-64
2023/10/24 00:07:46;;;;;;;16.00;14.30;;;12.80;99.90;;;12.88;100.00;100012.13;4806388;29;20659;-64
2023/10/24 00:10:15;;;;;;;;;;;12.80;99.90;;;13.04;100.00;100024.09;4808042;29;20057;-63
2023/10/24 00:12:43;;;;;;;21.10;16.45;;;12.80;99.90;;;13.01;100.00;100032.09;4806144;29;20406;-63
2023/10/24 00:15:12;;;;;;;17.55;15.38;;;12.80;99.90;;;13.13;100.00;100026.47;4807449;29;20065;-64
2023/10/24 00:17:40;;;;;;;18.05;15.30;;;12.80;99.90;;;13.08;100.00;100020.44;4807164;29;20051;-63
2023/10/24 00:20:11;;;;;;;18.02;14.95;;;12.80;99.90;;;13.09;100.00;100016.84;4791091;29;20490;-63
2023/10/24 00:22:40;;;;;;;17.98;15.25;;;12.80;99.90;;;12.97;100.00;100017.16;4807141;29;20055;-62
2023/10/24 00:25:09;;;;;;;15.68;14.02;;;12.80;99.90;;;13.06;100.00;100001.03;4807049;29;20442;-62
2023/10/24 00:27:37;;;;;;;16.92;14.60;;;12.80;99.90;;;12.98;100.00;100012.72;4807038;29;20074;-63
2023/10/24 00:30:08;;;;;;;17.35;15.50;;;12.70;99.90;;;12.95;100.00;100011.03;4790924;29;20109;-64
2023/10/24 00:32:36;;;;;;;16.80;15.02;;;12.70;99.90;;;12.92;100.00;100008.47;4807231;29;20054;-62
2023/10/24 00:35:05;;;;;;;16.65;14.95;;;12.60;99.90;;;13.13;100.00;100007.91;4790770;29;20047;-63
2023/10/24 00:37:35;;;;;;;16.70;15.00;;;12.80;99.90;;;13.14;100.00;100003.47;4806482;29;20054;-63
2023/10/24 00:40:05;;;;;;;16.63;14.93;;;12.80;99.90;;;13.16;100.00;100013.09;4807386;29;20055;-63
2023/10/24 00:42:33;;;;;;;16.88;14.82;;;12.80;99.90;;;13.21;100.00;100015.63;4806741;29;20351;-63
2023/10/24 00:45:03;;;;;;;17.50;15.70;;;12.90;99.90;;;13.30;100.00;100010.94;4808318;29;20562;-62
2023/10/24 00:47:32;;;;;;;19.35;17.27;;;13.00;99.90;;;13.39;100.00;100008.00;4819417;29;20094;-63
2023/10/24 00:50:01;;;;;;;20.48;18.38;;;13.10;99.90;;;13.52;100.00;100001.41;4816842;29;20497;-63
2023/10/24 00:52:30;;;;;;;20.95;18.42;;;13.30;99.90;;;13.53;100.00;100004.94;4810883;29;20155;-63
2023/10/24 00:55:00;;;;;;;21.25;18.95;;;13.30;99.90;;;13.53;100.00;99997.84;4810440;29;20049;-63
2023/10/24 00:57:28;;;;;;;23.65;21.23;;;13.30;99.90;;;13.71;100.00;100000.84;4816894;29;20055;-63
2023/10/24 00:59:57;;;;;;;22.55;20.00;;;13.40;99.90;;;13.69;100.00;100002.66;4790237;29;20107;-63
2023/10/24 01:02:26;;;;;;;22.50;19.52;;;13.50;99.90;;;13.79;100.00;100005.00;4821086;29;20424;-63
2023/10/24 01:04:57;;;;;;;21.98;18.75;;;13.60;99.90;;;13.81;100.00;100008.50;4805108;29;20186;-62
2023/10/24 01:07:26;;;;;;;19.20;16.77;;;13.60;99.90;;;13.87;100.00;100007.41;4801504;29;20103;-62
2023/10/24 01:09:54;;;;;;;19.90;16.23;;;13.70;99.90;;;13.86;100.00;100008.34;4810290;29;20047;-62
2023/10/24 01:12:24;;;;;;;19.30;16.55;;;13.60;99.90;;;13.87;100.00;99996.78;4803228;29;20429;-63
2023/10/24 01:14:52;;;;;;;21.63;17.30;;;13.60;99.90;;;13.92;100.00;100003.69;4816119;29;20473;-63
2023/10/24 01:17:21;;;;;;;18.77;16.35;;;13.70;99.90;;;14.03;100.00;99990.91;4810892;29;20345;-63
2023/10/24 01:19:49;;;;;;;18.50;16.58;;;13.80;99.90;;;14.08;100.00;99990.78;4820843;29;20051;-63
2023/10/24 01:22:19;;;;;;;17.85;15.95;;;13.90;99.90;;;14.20;100.00;100001.91;4813636;29;20133;-63
2023/10/24 01:24:48;;;;;;;20.30;16.93;;;13.90;99.90;;;14.20;100.00;100006.34;4812479;29;20055;-62
2023/10/24 01:27:20;;;;;;;18.87;15.67;;;14.00;99.90;;;14.17;100.00;100001.09;4820718;29;20057;-63
2023/10/24 01:29:48;;;;;;;19.00;14.82;;;13.90;99.90;;;14.12;100.00;99992.41;4811530;29;20300;-62
2023/10/24 01:32:16;;;;;;;17.48;14.48;;;13.90;99.90;;;14.15;100.00;99987.03;4813619;29;20054;-62
2023/10/24 01:34:46;;;;;;;16.00;14.30;;;13.90;99.90;;;14.22;100.00;99999.19;4805214;29;20050;-62
2023/10/24 01:37:14;;;;;;;16.60;14.45;;;14.00;99.90;;;14.28;100.00;99999.03;4819521;29;20054;-62
2023/10/24 01:39:44;;;;;;;16.58;14.80;;;14.00;99.90;;;14.05;100.00;99964.31;4814808;29;20050;-63
2023/10/24 01:42:12;;;;;;;19.23;16.33;;;14.00;99.90;;;14.24;100.00;99992.03;4811413;29;20062;-63
2023/10/24 01:44:40;;;;;;;21.38;17.00;;;14.00;99.90;;;14.22;100.00;99988.53;4820235;29;20081;-63
2023/10/24 01:47:09;;;;;;;21.85;18.52;;;14.00;99.90;;;14.20;100.00;99982.41;4813278;29;20050;-63
2023/10/24 01:49:38;;;;;;;23.05;17.90;;;13.90;99.90;;;14.25;100.00;99981.31;4795736;29;20050;-63
2023/10/24 01:52:06;;;;;;;21.00;18.05;;;13.90;99.90;;;14.21;100.00;99986.78;4820443;29;20100;-63
2023/10/24 01:54:35;;;;;;;21.52;18.52;;;13.90;99.90;;;14.23;100.00;99984.94;4811210;29;20404;-64
2023/10/24 01:57:05;;;;;;;23.50;19.10;;;13.90;99.90;;;14.22;100.00;99981.44;4814692;29;20062;-63
2023/10/24 01:59:34;;;;;;;25.33;19.77;;;13.90;99.90;;;14.24;100.00;99984.03;4789421;29;20076;-63
2023/10/24 02:02:03;;;;;;;23.13;19.65;;;14.00;99.90;;;14.24;100.00;99989.38;4793481;29;20057;-62
2023/10/24 02:04:31;;;;;;;24.95;20.40;;;14.00;99.90;;;14.27;100.00;99992.81;4815833;29;20127;-62
2023/10/24 02:07:00;;;;;;;26.13;20.40;;;14.00;99.90;;;14.30;100.00;99982.06;4816898;29;20050;-63
2023/10/24 02:09:30;;;;;;;24.33;20.73;;;14.00;99.90;;;14.34;100.00;99980.19;4809579;29;20195;-62
2023/10/24 02:12:00;;;;;;;22.58;19.75;;;14.00;99.90;;;14.40;100.00;99982.66;4817642;29;20047;-62
2023/10/24 02:14:30;;;;;;;;;;;14.10;99.90;;;14.21;100.00;99950.44;4800434;29;20050;-62
2023/10/24 02:16:59;;;;;;;26.07;20.60;;;14.10;99.90;;;14.44;100.00;99981.59;4809421;29;19982;-62
2023/10/24 02:19:27;;;;;;;25.17;20.63;;;14.20;99.90;;;14.38;100.00;99971.19;4802557;29;20079;-63
2023/10/24 02:21:56;;;;;;;24.88;20.75;;;14.20;99.90;;;13.89;100.00;99893.94;4813394;29;20110;-63
2023/10/24 02:24:24;;;;;;;22.77;19.88;;;14.20;99.90;;;14.40;100.00;99980.84;4793984;29;20054;-62
2023/10/24 02:26:53;;;;;;;21.92;18.95;;;14.10;99.90;;;14.43;100.00;99972.75;4819949;29;20123;-62
2023/10/24 02:29:21;;;;;;;24.88;19.20;;;14.20;99.90;;;14.39;100.00;99980.91;4812819;29;20505;-63
2023/10/24 02:31:51;;;;;;;26.10;19.98;;;14.10;99.90;;;14.39;100.00;99970.25;4811894;29;20406;-62
2023/10/24 02:34:21;;;;;;;22.23;18.88;;;14.10;99.90;;;14.40;100.00;99962.22;4819540;29;20054;-62
2023/10/24 02:36:49;;;;;;;22.70;20.17;;;14.10;99.90;;;14.36;100.00;99976.53;4804221;29;20047;-62
2023/10/24 02:39:18;;;;;;;22.80;19.05;;;14.10;99.90;;;14.44;100.00;99968.28;4815510;29;20050;-62
2023/10/24 02:41:47;;;;;;;22.85;20.13;;;14.10;99.90;;;14.38;100.00;99964.06;4809295;29;20549;-63
2023/10/24 02:44:15;;;;;;;23.98;21.40;;;14.10;99.90;;;14.41;100.00;99958.66;4819363;29;20047;-63
2023/10/24 02:46:44;;;;;;;25.90;21.85;;;14.10;99.90;;;14.43;100.00;99972.75;4804224;29;20079;-63
2023/10/24 02:49:14;;;;;;;24.80;22.17;;;14.10;99.90;;;14.53;100.00;99960.00;4817896;29;20073;-62
2023/10/24 02:51:43;;;;;;;25.25;21.77;;;14.20;99.90;;;14.55;100.00;99965.28;4807792;29;20062;-63
2023/10/24 02:54:11;;;;;;;26.35;22.13;;;14.20;99.90;;;14.52;100.00;99955.59;4816586;29;20039;-63
2023/10/24 02:56:41;;;;;;;26.15;22.13;;;14.20;99.90;;;14.44;100.00;99965.63;4789113;29;20051;-62
2023/10/24 02:59:10;;;;;;;23.80;21.17;;;14.10;99.90;;;14.46;100.00;99967.31;4819910;29;20434;-63
2023/10/24 03:01:38;;;;;;;24.75;21.98;;;14.20;99.90;;;14.49;100.00;99982.31;4791883;29;20089;-62
2023/10/24 03:04:07;;;;;;;27.08;22.73;;;14.20;99.90;;;14.48;100.00;99977.91;4817878;29;20476;-62
2023/10/24 03:06:37;;;;;;;25.23;22.13;;;14.20;99.90;;;14.38;100.00;99974.69;4813464;29;20098;-63
2023/10/24 03:09:05;;;;;;;27.63;22.90;;;14.10;99.90;;;14.31;100.00;99973.19;4822631;29;20058;-63
2023/10/24 03:11:34;;;;;;;28.95;23.75;;;14.10;99.90;;;14.26;100.00;99977.75;4816185;29;20051;-62
2023/10/24 03:14:03;;;;;;;27.70;22.73;;;14.00;99.90;;;14.27;100.00;99976.84;4814763;29;20049;-63
2023/10/24 03:16:34;;;;;;;24.88;22.23;;;14.00;99.90;;;14.25;100.00;99983.09;4822753;29;20337;-62
2023/10/24 03:19:03;;;;;;;26.25;22.60;;;14.00;99.90;;;14.31;100.00;99988.25;4814447;29;20046;-62
2023/10/24 03:21:31;;;;;;;28.33;24.45;;;14.00;99.90;;;14.22;100.00;99988.53;4815922;29;20046;-63
2023/10/24 03:24:02;;;;;;;28.30;24.35;;;14.00;99.90;;;14.20;100.00;99979.75;4822716;29;20089;-63
2023/10/24 03:26:30;;;;;;;;;;;13.90;99.90;;;14.19;100.00;99985.97;4813501;29;20050;-63
2023/10/24 03:28:58;;;;;;;28.42;23.73;;;13.90;99.90;;;14.20;100.00;99988.59;4817364;29;20392;-63
2023/10/24 03:31:27;;;;;;;28.38;24.27;;;13.90;99.90;;;14.23;100.00;99974.31;4791844;29;20146;-63
2023/10/24 03:33:56;;;;;;;29.30;24.70;;;14.00;99.90;;;14.11;100.00;99980.06;4822250;29;20486;-63
2023/10/24 03:36:25;;;;;;;30.73;25.20;;;13.90;99.90;;;14.10;100.00;99988.94;4791683;29;20116;-63
2023/10/24 03:38:53;;;;;;;29.52;24.52;;;13.80;99.90;;;14.16;100.00;99986.97;4819357;29;20042;-64
2023/10/24 03:41:23;;;;;;;28.65;23.50;;;13.90;99.90;;;14.11;100.00;99983.56;4811529;29;20128;-65
2023/10/24 03:43:52;;;;;;;31.05;25.55;;;13.80;99.90;;;14.03;100.00;99987.41;4820750;29;20058;-64
2023/10/24 03:46:20;;;;;;;33.50;26.60;;;13.80;99.90;;;14.07;100.00;99979.25;4806776;29;20050;-65
2023/10/24 03:48:48;;;;;;;33.05;26.33;;;13.80;99.90;;;14.02;100.00;99975.03;4821414;29;20519;-64
2023/10/24 03:51:17;;;;;;;32.88;26.88;;;13.70;99.90;;;14.08;100.00;99977.47;4811630;29;20053;-64
2023/10/24 03:53:45;;;;;;;33.65;26.88;;;13.80;99.90;;;14.06;100.00;99992.63;4818536;29;20394;-64
2023/10/24 03:56:14;;;;;;;33.25;26.40;;;13.80;99.90;;;13.94;100.00;99987.69;4819340;29;20054;-65
2023/10/24 03:58:43;;;;;;;31.15;25.45;;;13.70;99.90;;;13.96;100.00;99999.16;4811323;29;20137;-64
2023/10/24 04:01:12;;;;;;;32.17;26.92;;;13.70;99.90;;;13.94;100.00;100000.97;4819661;29;20463;-64
2023/10/24 04:03:40;;;;;;;32.53;27.25;;;13.70;99.90;;;13.90;100.00;99992.25;4818137;29;20554;-64
2023/10/24 04:06:12;;;;;;;29.67;25.67;;;13.60;99.90;;;13.91;100.00;99993.13;4811236;29;20047;-64
2023/10/24 04:08:41;;;;;;;30.40;25.88;;;13.70;99.90;;;13.92;100.00;99990.41;4811106;29;20082;-64
2023/10/24 04:11:14;;;;;;;29.92;25.40;;;13.70;99.90;;;13.94;100.00;99993.00;4816479;29;20405;-64
2023/10/24 04:13:44;;;;;;;31.63;24.73;;;13.70;99.90;;;13.84;100.00;99994.25;4820663;29;20043;-64
2023/10/24 04:16:13;;;;;;;29.50;25.55;;;13.60;99.90;;;13.68;100.00;99963.75;4811233;29;20474;-63
2023/10/24 04:18:42;;;;;;;28.65;24.65;;;13.50;99.90;;;13.85;100.00;99978.25;4817542;29;20138;-63
2023/10/24 04:21:10;;;;;;;26.60;23.08;;;13.50;99.90;;;13.88;100.00;99982.59;4791155;29;20085;-63
2023/10/24 04:23:38;;;;;;;26.85;23.13;;;13.60;99.90;;;13.87;100.00;99972.88;4821771;29;20142;-63
2023/10/24 04:26:07;;;;;;;25.92;22.27;;;13.60;99.90;;;13.85;100.00;99972.91;4813039;29;20055;-64
2023/10/24 04:28:35;;;;;;;25.65;21.48;;;13.50;99.90;;;13.90;100.00;99978.09;4799036;29;20375;-63
2023/10/24 04:31:05;;;;;;;27.63;23.35;;;13.60;99.90;;;13.86;100.00;99973.81;4821274;29;20046;-63
2023/10/24 04:33:34;;;;;;;26.20;22.20;;;13.60;99.90;;;13.83;100.00;99968.56;4820822;29;20386;-63
2023/10/24 04:36:03;;;;;;;28.90;23.35;;;13.50;99.90;;;13.87;100.00;99978.19;4815233;29;20070;-64
2023/10/24 04:38:32;;;;;;;26.67;22.17;;;13.60;99.90;;;13.81;100.00;99965.09;4812254;29;20058;-63
2023/10/24 04:41:00;;;;;;;30.38;23.55;;;13.50;99.90;;;13.87;100.00;99962.22;4821347;29;20131;-63
2023/10/24 04:43:28;;;;;;;28.98;23.38;;;13.60;99.90;;;13.85;100.00;99972.91;4813481;29;20042;-63
2023/10/24 04:45:57;;;;;;;30.25;24.27;;;13.60;99.90;;;13.89;100.00;99965.72;4813890;29;20055;-63
2023/10/24 04:48:27;;;;;;;26.40;23.10;;;13.60;99.90;;;13.46;100.00;99862.59;4821124;29;20057;-64
2023/10/24 04:50:55;;;;;;;25.33;21.50;;;13.70;99.90;;;14.03;100.00;99961.66;4811816;29;20164;-63
2023/10/24 04:53:24;;;;;;;27.48;22.42;;;13.70;99.90;;;14.01;100.00;99960.88;4815557;29;20053;-63
2023/10/24 04:55:53;;;;;;;27.60;22.20;;;13.70;99.90;;;13.95;100.00;99952.22;4820204;29;20103;-63
2023/10/24 04:58:21;;;;;;;27.75;22.83;;;13.70;99.90;;;14.05;100.00;99951.00;4810251;29;20493;-63
2023/10/24 05:00:49;;;;;;;27.05;22.38;;;13.70;99.90;;;14.08;100.00;99959.75;4817425;29;20511;-64
2023/10/24 05:03:18;;;;;;;26.73;22.10;;;13.80;99.90;;;14.08;100.00;99959.75;4818134;29;20062;-64
2023/10/24 05:05:48;;;;;;;26.10;22.48;;;13.80;99.90;;;14.05;100.00;99948.34;4793822;29;20061;-63
2023/10/24 05:08:16;;;;;;;27.23;22.33;;;13.80;99.90;;;14.11;100.00;99945.50;4819087;29;20090;-63
2023/10/24 05:10:44;;;;;;;29.30;23.60;;;13.80;99.90;;;14.04;100.00;99950.13;4816611;29;20079;-64
2023/10/24 05:13:13;;;;;;;29.58;22.98;;;13.80;99.90;;;13.98;100.00;99941.47;4810319;29;20109;-63
2023/10/24 05:15:41;;;;;;;30.45;23.17;;;13.70;99.90;;;13.95;100.00;99937.16;4806529;29;20072;-63
2023/10/24 05:18:11;;;;;;;30.00;23.92;;;13.70;99.90;;;13.95;100.00;99933.63;4806406;29;20054;-63
2023/10/24 05:20:40;;;;;;;29.80;23.77;;;13.70;99.90;;;13.96;100.00;99935.34;4805176;29;20142;-63
2023/10/24 05:23:09;;;;;;;32.65;23.10;;;13.70;99.90;;;13.97;100.00;99937.97;4805747;29;20138;-63
2023/10/24 05:25:38;;;;;;;29.08;23.50;;;13.70;99.90;;;14.04;100.00;99933.28;4806125;29;20115;-63
2023/10/24 05:28:09;;;;;;;28.98;23.38;;;13.70;99.90;;;13.93;100.00;99923.03;4806114;29;20457;-63
2023/10/24 05:30:39;;;;;;;29.27;23.73;;;13.70;99.90;;;13.94;100.00;99927.41;4806214;29;20076;-64
2023/10/24 05:33:08;;;;;;;31.33;25.35;;;13.70;99.90;;;13.94;100.00;99919.44;4805983;29;20050;-64
2023/10/24 05:35:36;;;;;;;29.92;24.63;;;13.70;99.90;;;14.01;100.00;99910.38;4806258;29;20053;-64
2023/10/24 05:38:04;;;;;;;31.98;25.27;;;13.70;99.90;;;14.00;100.00;99918.38;4805791;29;20047;-65
2023/10/24 05:40:34;;;;;;;31.85;26.33;;;13.70;99.90;;;14.04;100.00;99914.69;4806119;29;20059;-64
2023/10/24 05:43:03;;;;;;;31.17;25.95;;;13.80;99.90;;;14.02;100.00;99912.09;4806312;29;20051;-65
2023/10/24 05:45:31;;;;;;;30.92;26.67;;;13.70;99.90;;;13.98;100.00;99914.88;4804768;29;20049;-64
2023/10/24 05:47:59;;;;;;;29.55;25.50;;;13.70;99.90;;;13.97;100.00;99924.69;4805796;29;20050;-63
2023/10/24 05:50:29;;;;;;;34.70;26.30;;;13.70;99.90;;;13.97;100.00;99922.00;4805650;29;20057;-64
2023/10/24 05:52:58;;;;;;;30.02;25.23;;;13.70;99.90;;;14.06;100.00;99932.34;4805998;29;20103;-64
2023/10/24 05:55:27;;;;;;;30.65;25.33;;;13.80;99.90;;;14.01;100.00;99915.69;4805629;29;20043;-64
2023/10/24 05:57:59;;;;;;;31.38;26.70;;;13.80;99.90;;;14.02;100.00;99927.16;4805826;29;20564;-64
2023/10/24 06:00:27;;;;;;;30.20;25.67;;;13.80;99.90;;;14.08;100.00;99932.28;4805636;29;20137;-64
2023/10/24 06:02:56;;;;;;;34.15;26.95;;;13.80;99.90;;;14.07;100.00;99927.91;4805525;29;20055;-64
2023/10/24 06:05:24;;;;;;;29.70;25.77;;;13.80;99.90;;;14.01;100.00;99922.78;4805492;29;20043;-62
2023/10/24 06:07:52;;;;;;;33.28;25.88;;;13.80;99.90;;;13.98;100.00;99915.75;4805833;29;20074;-63
2023/10/24 06:10:21;;;;;;;32.75;26.60;;;13.70;99.90;;;13.97;100.00;99931.78;4805385;29;20050;-63
2023/10/24 06:12:50;;;;;;;32.65;26.00;;;13.70;99.90;;;13.93;100.00;99924.81;4820155;29;20129;-63
2023/10/24 06:15:20;;;;;;;33.42;27.35;;;13.70;99.90;;;13.94;100.00;99934.50;4810829;29;20141;-63
2023/10/24 06:17:48;;;;;;;33.35;26.40;;;13.70;99.90;;;13.94;100.00;99923.88;4797475;29;20066;-63
2023/10/24 06:20:17;;;;;;;39.80;27.33;;;13.70;99.90;;;13.95;100.00;99936.28;4819545;29;20054;-63
2023/10/24 06:22:45;;;;;;;34.97;27.33;;;13.70;99.90;;;13.99;100.00;99959.19;4809183;29;20058;-63
2023/10/24 06:25:14;;;;;;;31.48;26.08;;;13.70;99.90;;;13.95;100.00;99941.59;4816159;29;20047;-63
2023/10/24 06:27:42;;;;;;;33.22;27.27;;;13.70;99.90;;;13.97;100.00;99937.09;4817445;29;20090;-64
2023/10/24 06:30:12;;;;;;;33.70;28.58;;;13.70;99.90;;;13.91;100.00;99940.81;4809274;29;20054;-64
2023/10/24 06:32:43;;;;;;;34.90;27.00;;;13.60;99.90;;;13.95;100.00;99952.22;4817319;29;20471;-63
2023/10/24 06:35:15;;;;;;;31.50;27.08;;;13.70;99.90;;;13.95;100.00;99941.59;4816725;29;20057;-64
2023/10/24 06:37:43;;;;;;;34.50;26.67;;;13.70;99.90;;;13.93;100.00;99952.28;4811495;29;20497;-63
2023/10/24 06:40:12;;;;;;;29.40;25.67;;;13.70;99.90;;;13.95;100.00;99952.22;4822015;29;20050;-63
2023/10/24 06:42:41;;;;;;;30.58;26.75;;;13.70;99.90;;;13.92;100.00;99953.19;4818570;29;20060;-63
2023/10/24 06:45:10;;;;;;;31.90;25.65;;;13.70;99.90;;;13.99;100.00;99961.84;4813567;29;20100;-63
2023/10/24 06:47:41;;;;;;;32.38;26.50;;;13.70;99.90;;;13.96;100.00;99960.16;4823380;29;20064;-64
2023/10/24 06:50:10;;;;;;;31.52;26.95;;;13.70;99.90;;;13.87;100.00;99962.22;4816659;29;20047;-64
2023/10/24 06:52:41;;;;;;;29.77;25.60;;;13.70;99.90;;;14.01;100.00;99974.19;4814562;29;20463;-64
2023/10/24 06:55:10;;;;;;;32.17;26.00;;;13.70;99.90;;;14.04;100.00;99981.16;4823419;29;20050;-65
2023/10/24 06:57:39;;;;;;;30.92;25.35;;;13.80;99.90;;;14.00;100.00;99996.34;4815061;29;20070;-64
2023/10/24 07:00:09;;;;;;;30.85;25.60;;;13.70;99.90;;;13.92;100.00;99985.09;4815834;29;20558;-62
2023/10/24 07:02:39;;;;;;;31.17;25.73;;;13.70;99.90;;;13.91;100.00;99983.38;4823000;29;20055;-63
2023/10/24 07:05:09;;;;;;;31.08;26.40;;;13.70;99.90;;;13.90;100.00;99959.50;4813247;29;20053;-61
2023/10/24 07:07:39;;;;;;;32.97;26.48;;;13.70;99.90;;;13.94;100.00;99972.63;4817015;29;20047;-61
2023/10/24 07:10:09;;;;;;;33.90;26.83;;;13.70;99.90;;;13.88;100.00;99961.34;4822160;29;20074;-60
2023/10/24 07:12:37;;;;;;;30.00;24.50;;;13.60;99.90;;;13.91;100.00;99970.06;4791959;29;20565;-62
2023/10/24 07:15:08;;;;;;;29.80;24.10;;;13.70;99.90;;;13.84;100.00;99983.59;4808013;29;20069;-62
2023/10/24 07:17:37;;;;;;;30.58;25.25;;;13.60;99.90;;;13.90;100.00;99965.66;4808200;29;20561;-61
2023/10/24 07:20:11;;;;;;;32.65;24.63;;;13.70;99.90;;;13.92;100.00;99986.88;4808046;29;20508;-62
2023/10/24 07:22:40;;;;;;;30.58;25.23;;;13.70;99.90;;;13.92;100.00;99982.44;4807962;29;20059;-61
2023/10/24 07:25:09;;;;;;;29.77;25.45;;;13.70;99.90;;;13.95;100.00;99976.16;4808027;29;20062;-61
2023/10/24 07:27:38;;;;;;;29.02;24.73;;;13.70;99.90;;;13.91;100.00;99980.69;4808185;29;20061;-60
2023/10/24 07:30:09;;;;;;;28.35;23.75;;;13.70;99.90;;;13.91;100.00;99978.03;4808026;29;20047;-59
2023/10/24 07:32:37;;;;;;;29.40;23.90;;;13.70;99.90;;;13.85;100.00;99961.41;4808006;29;20406;-63
2023/10/24 07:35:08;;;;;;;29.42;24.02;;;13.60;99.90;;;13.97;100.00;99964.56;4807896;29;20061;-63
2023/10/24 07:37:37;;;;;;;29.73;24.30;;;13.70;99.90;;;13.96;100.00;99975.22;4812004;29;20061;-61
2023/10/24 07:40:08;;;;;;;26.30;23.40;;;13.70;99.90;;;14.00;100.00;99969.75;4817278;29;20138;-62
2023/10/24 07:42:36;;;;;;;25.38;22.40;;;13.70;99.90;;;13.99;100.00;99975.13;4821060;29;20303;-61
2023/10/24 07:45:06;;;;;;;29.52;23.77;;;13.70;99.90;;;13.97;100.00;99961.03;4811461;29;20143;-61
2023/10/24 07:47:34;;;;;;;28.10;24.17;;;13.70;99.90;;;13.95;100.00;99970.84;4817678;29;20055;-61
2023/10/24 07:50:05;;;;;;;26.83;23.00;;;13.70;99.90;;;13.93;100.00;99985.97;4819019;29;20046;-61
2023/10/24 07:52:33;;;;;;;29.55;24.10;;;13.70;99.90;;;13.92;100.00;99985.09;4811301;29;20047;-60
2023/10/24 07:55:04;;;;;;;30.83;23.13;;;13.70;99.90;;;13.72;100.00;99962.72;4803946;29;20154;-61
2023/10/24 07:57:32;;;;;;;27.00;22.90;;;13.60;99.90;;;13.82;100.00;99969.50;4817628;29;20049;-62
2023/10/24 08:00:01;;;;;;;27.40;23.73;;;13.50;99.90;;;13.78;100.00;99968.69;4811553;29;20080;-62
2023/10/24 08:02:39;;;;;;;28.05;22.85;;;13.50;99.90;;;13.83;100.00;99957.94;4820184;29;20445;-62
2023/10/24 08:05:09;;;;;;;27.33;23.13;;;13.60;99.90;;;13.75;100.00;99958.19;4817096;29;20054;-61
2023/10/24 08:07:37;;;;;;;29.38;22.70;;;13.60;99.90;;;13.85;100.00;99975.56;4811416;29;20058;-61
2023/10/24 08:10:08;;;;;;;26.65;22.10;;;13.60;99.90;;;13.84;100.00;99955.22;4821429;29;20060;-61
2023/10/24 08:12:36;;;;;;;;;;;13.60;99.90;;;13.88;100.00;99956.00;4815745;29;20046;-61
2023/10/24 08:15:06;;;;;;;26.85;22.35;;;13.60;99.90;;;13.85;100.00;99953.44;4811773;29;19971;-61
2023/10/24 08:17:34;;;;;;;26.40;22.90;;;13.60;99.90;;;13.80;100.00;99950.06;4821596;29;20478;-61
2023/10/24 08:20:04;;;;;;;25.88;21.08;;;13.60;99.90;;;13.80;100.00;99964.22;4813341;29;20103;-61
2023/10/24 08:22:33;;;;;;;25.52;20.77;;;13.60;99.90;;;13.15;100.00;99841.44;4814415;29;20058;-61
2023/10/24 08:25:02;;;;;;;23.42;20.45;;;13.60;99.90;;;13.85;100.00;99949.00;4821389;29;20443;-61
2023/10/24 08:27:31;;;;;;;21.58;19.38;;;13.60;99.90;;;13.89;100.00;99968.38;4811824;29;20046;-62
2023/10/24 08:30:00;;;;;;;22.13;19.73;;;13.60;99.90;;;13.96;100.00;99953.94;4816139;29;20051;-62
2023/10/24 08:32:29;;;;;;;22.35;18.55;;;13.70;99.90;;;13.98;100.00;99942.34;4820273;29;20292;-62
2023/10/24 08:34:58;;;;;;;19.40;17.30;;;13.70;99.90;;;13.99;100.00;99951.19;4810593;29;20061;-61
2023/10/24 08:37:26;;;;;;;20.40;18.23;;;13.70;99.90;;;14.05;100.00;99937.72;4818042;29;20050;-61
2023/10/24 08:39:55;;;;;;;19.35;17.27;;;13.80;99.90;;;14.12;100.00;99956.06;4790645;29;20546;-61
2023/10/24 08:42:25;;;;;;;19.42;17.02;;;13.90;99.90;;;14.13;100.00;99962.25;4821205;29;20050;-61
2023/10/24 08:44:55;;;;;;;19.02;16.58;;;13.90;99.90;;;14.10;100.00;99949.06;4812630;29;20100;-61
2023/10/24 08:47:24;;;;;;;19.95;17.17;;;13.90;99.90;;;14.15;100.00;99953.28;4814731;29;20051;-62
2023/10/24 08:49:53;;;;;;;20.70;16.48;;;13.90;99.90;;;13.99;100.00;99960.06;4821064;29;20051;-62
2023/10/24 08:52:21;;;;;;;20.98;17.38;;;13.80;99.90;;;14.03;100.00;99979.44;4811141;29;20160;-62
2023/10/24 08:55:00;;;;;;;20.98;16.38;;;13.80;99.90;;;14.04;100.00;99976.72;4815340;29;20057;-63
2023/10/24 08:57:30;;;;;;;;;;;13.80;99.90;;;14.12;100.00;99995.97;4805889;29;20058;-61
2023/10/24 09:00:01;;;;;;;21.60;17.10;;;13.90;99.90;;;14.11;100.00;99977.41;4810154;29;19925;-61
2023/10/24 09:02:30;;;;;;;21.15;16.98;;;13.90;99.90;;;14.09;100.00;99977.44;4816125;29;20311;-62
2023/10/24 09:05:00;;;;;;;18.42;15.88;;;13.90;99.90;;;14.10;100.00;99988.94;4818788;29;20126;-62
2023/10/24 09:07:29;;;;;;;19.20;16.35;;;13.90;99.90;;;14.12;100.00;99984.44;4794045;29;20058;-61
2023/10/24 09:09:57;;;;;;;20.88;16.05;;;13.90;99.90;;;14.13;100.00;99991.53;4817727;29;20047;-62
2023/10/24 09:12:30;;;;;;;20.95;16.73;;;13.90;99.90;;;14.05;100.00;99990.91;4817317;29;20046;-62
2023/10/24 09:15:00;;;;;;;20.00;16.25;;;13.80;99.90;;;13.98;100.00;99979.56;4810234;29;20061;-61
2023/10/24 09:17:32;;;;;;;20.80;17.90;;;13.70;99.90;;;14.07;100.00;99994.38;4818950;29;20440;-61
2023/10/24 09:20:02;;;;;;;21.73;16.88;;;13.80;99.90;;;14.07;100.00;99978.41;4816448;29;20046;-62
2023/10/24 09:22:35;;;;;;;19.77;16.95;;;13.80;99.90;;;14.02;100.00;99989.19;4809823;29;20066;-62
2023/10/24 09:25:04;;;;;;;20.60;17.00;;;13.80;99.90;;;13.99;100.00;100009.69;4819570;29;20167;-62
2023/10/24 09:27:33;;;;;;;24.80;16.90;;;13.80;99.90;;;13.99;100.00;100012.34;4815339;29;20051;-62
2023/10/24 09:30:12;;;;;;;23.38;17.70;;;13.70;99.90;;;14.00;100.00;100004.31;4811097;29;20061;-61
2023/10/24 09:32:41;;;;;;;21.60;17.60;;;13.70;99.90;;;14.08;100.00;100001.41;4806536;29;20516;-62
2023/10/24 09:35:10;;;;;;;20.73;17.75;;;13.80;99.90;;;14.11;100.00;100001.34;4805846;29;20050;-62
2023/10/24 09:37:45;;;;;;;21.70;17.75;;;13.90;99.90;;;14.06;100.00;100014.78;4805668;29;20497;-62
2023/10/24 09:40:14;;;;;;;23.92;17.17;;;13.80;99.90;;;14.05;100.00;99990.91;4809691;29;20133;-62
2023/10/24 09:42:44;;;;;;;23.48;16.88;;;13.80;99.90;;;14.15;100.00;99993.19;4816061;29;20051;-62
2023/10/24 09:45:15;;;;;;;20.77;17.43;;;13.90;99.90;;;14.17;100.00;99998.44;4818269;29;20061;-62
2023/10/24 09:47:45;;;;;;;20.98;16.63;;;13.90;99.90;;;14.21;100.00;99992.97;4809345;29;20296;-63
2023/10/24 09:50:15;;;;;;;20.80;17.45;;;14.00;99.90;;;14.25;100.00;99988.44;4817057;29;20061;-63
2023/10/24 09:52:45;;;;;;;22.25;17.65;;;14.00;99.90;;;14.27;100.00;100000.81;4789752;29;20090;-63
2023/10/24 09:55:15;;;;;;;21.10;16.50;;;14.00;99.90;;;14.21;100.00;100002.75;4820178;29;20050;-62
2023/10/24 09:57:45;;;;;;;;;;;14.00;99.90;;;14.24;100.00;100013.31;4811791;29;20078;-62
2023/10/24 10:00:16;;;;;;;20.17;17.80;;;14.00;99.90;;;14.09;100.00;99993.38;4814099;29;20029;-62
2023/10/24 10:02:46;;;;;;;21.85;18.40;;;13.90;99.90;;;14.19;100.00;100025.88;4820643;29;20103;-62
2023/10/24 10:05:15;;;;;;;21.45;18.30;;;13.90;99.90;;;14.18;100.00;100013.50;4810400;29;20463;-62
2023/10/24 10:07:49;;;;;;;24.17;19.15;;;13.90;99.90;;;14.11;100.00;99972.94;4814889;29;20046;-62